< < Back
Terminal Aerodrome Forecast


Current Version              Previous Versions:   1  2  3  4  5  6  7  8  9  

Terminal Aerodrome Forecast

242
FTUS42 KFFC 032221 AAB
TAFFTY
TAF AMD
KFTY 032221Z 0322/0418 29007KT P6SM -RA SCT050 BKN100
     FM040000 30003KT P6SM BKN100
     FM041400 01004KT P6SM FEW040 SCT250
     FM041700 04005KT P6SM SCT060 BKN250=



Latest METAR

414
SAUS70 KWBC 042100 RRD
MTRFTY
METAR KFTY 042053Z 04018G25KT 6SM -TSRA BKN050 OVC060 28/22 A3000 RMK
AO2 RAB49 TSB33 PRESRR SLP148 P0000 60000 T02780217 55005


USA.gov is the U.S. government's official web portal to all federal, state and local government web resources and services.